Agnes, Georgia
Current Conditions -  °F | °C
As of 6:15 AM on Friday 26 Dec 2014 (Local Time) from KHQU Reporting Station
Clear Clear  
Wind Chill: 31°   Ceiling: Unl
Heat Index: 31°   Visibility: 10mi
Dew Point: 31°   Wind: 0mph
Humidity: 100%   Direction: NA
Pressure: 30.33"   Gusts: NA
Location:  33.7816°N, 82.4511°W
Report Text: KHQU 261115Z AUTO 00000KT 10SM CLR M01/M01 A3033 RMK AO1 T10061006
Loading
Personal Weather Stations






























Interactive Weather Map New forecast layout! Learn more

10-Day Weather Forecast

Advertisements
Track Severe Weather on mobile